createdAt,value
2018-04-30T00:00:38.457Z,986.86
2018-04-30T00:02:31.338Z,986.82
2018-04-30T00:03:31.293Z,986.73
2018-04-30T00:05:24.169Z,986.47
2018-04-30T00:06:24.131Z,986.65
2018-04-30T00:08:17.006Z,986.63
2018-04-30T00:09:16.988Z,986.51
2018-04-30T00:11:09.860Z,986.62
2018-04-30T00:12:09.828Z,986.75
2018-04-30T00:14:02.689Z,986.81
2018-04-30T00:15:02.670Z,986.64
2018-04-30T00:16:55.535Z,986.70
2018-04-30T00:17:55.504Z,986.83
2018-04-30T00:19:48.359Z,986.88
2018-04-30T00:20:48.340Z,986.85
2018-04-30T00:22:41.209Z,986.83
2018-04-30T00:23:41.196Z,986.79
2018-04-30T00:25:34.037Z,986.93
2018-04-30T00:26:34.024Z,986.95
2018-04-30T00:28:26.892Z,986.98
2018-04-30T00:29:26.855Z,986.96
2018-04-30T00:31:19.723Z,987.02
2018-04-30T00:32:19.692Z,987.03
2018-04-30T00:34:12.569Z,986.93
2018-04-30T00:35:12.541Z,986.95
2018-04-30T00:37:05.392Z,986.98
2018-04-30T00:38:05.374Z,986.84
2018-04-30T00:39:58.260Z,987.03
2018-04-30T00:40:58.217Z,987.10
2018-04-30T00:42:51.082Z,986.94
2018-04-30T00:43:51.052Z,986.95
2018-04-30T00:45:43.915Z,987.05
2018-04-30T00:46:43.884Z,986.92
2018-04-30T00:48:36.749Z,986.96
2018-04-30T00:49:36.732Z,987.09
2018-04-30T00:51:29.606Z,987.13
2018-04-30T00:52:29.575Z,987.06
2018-04-30T00:54:22.432Z,987.03
2018-04-30T00:55:22.413Z,987.14
2018-04-30T00:57:15.287Z,987.10
2018-04-30T00:58:15.254Z,987.12
2018-04-30T01:00:08.112Z,987.08
2018-04-30T01:01:08.097Z,987.15
2018-04-30T01:03:00.965Z,987.07
2018-04-30T01:04:00.933Z,987.07
2018-04-30T01:05:53.793Z,987.13
2018-04-30T01:06:53.777Z,987.14
2018-04-30T01:08:46.642Z,987.08
2018-04-30T01:09:46.609Z,987.07
2018-04-30T01:11:39.486Z,987.03
2018-04-30T01:12:39.464Z,986.95
2018-04-30T01:14:32.332Z,987.12
2018-04-30T01:15:32.302Z,987.03
2018-04-30T01:17:25.161Z,987.25
2018-04-30T01:18:25.138Z,987.16
2018-04-30T01:20:18.013Z,987.18
2018-04-30T01:21:17.978Z,987.20
2018-04-30T01:23:10.831Z,987.21
2018-04-30T01:24:10.810Z,987.27
2018-04-30T01:26:03.684Z,987.11
2018-04-30T01:27:03.655Z,986.96
2018-04-30T01:28:56.500Z,987.03
2018-04-30T01:29:56.482Z,987.03
2018-04-30T01:31:49.352Z,987.23
2018-04-30T01:32:49.322Z,987.34
2018-04-30T01:34:42.175Z,987.45
2018-04-30T01:35:42.153Z,987.12
2018-04-30T01:37:35.025Z,987.10
2018-04-30T01:38:34.995Z,987.29
2018-04-30T01:40:27.846Z,987.08
2018-04-30T01:41:27.827Z,987.26
2018-04-30T01:43:20.699Z,987.13
2018-04-30T01:44:20.670Z,987.24
2018-04-30T01:46:13.518Z,987.39
2018-04-30T01:47:13.496Z,987.44
2018-04-30T01:49:06.369Z,987.36
2018-04-30T01:50:06.333Z,987.38
2018-04-30T01:51:59.189Z,987.49
2018-04-30T01:52:59.170Z,987.60
2018-04-30T01:54:52.036Z,987.44
2018-04-30T01:55:52.011Z,987.61
2018-04-30T01:57:44.855Z,987.54
2018-04-30T01:58:44.838Z,987.70
2018-04-30T02:00:37.781Z,987.83
2018-04-30T02:01:37.690Z,987.72
2018-04-30T02:03:30.528Z,987.76
2018-04-30T02:04:30.508Z,987.73
2018-04-30T02:06:23.373Z,987.73
2018-04-30T02:07:23.343Z,987.69
2018-04-30T02:09:16.198Z,987.80
2018-04-30T02:10:16.179Z,987.75
2018-04-30T02:12:09.044Z,987.78
2018-04-30T02:13:09.016Z,987.81
2018-04-30T02:15:01.869Z,987.90
2018-04-30T02:16:01.849Z,987.86
2018-04-30T02:17:54.709Z,987.96
2018-04-30T02:18:54.682Z,988.04
2018-04-30T02:20:47.541Z,988.13
2018-04-30T02:21:47.516Z,988.15
2018-04-30T02:23:40.379Z,988.13
2018-04-30T02:24:40.348Z,988.33
2018-04-30T02:26:33.200Z,988.08
2018-04-30T02:27:33.197Z,988.05
2018-04-30T02:29:26.085Z,988.21
2018-04-30T02:30:26.018Z,988.10
2018-04-30T02:32:18.872Z,988.12
2018-04-30T02:33:18.853Z,988.10
2018-04-30T02:35:11.707Z,988.28
2018-04-30T02:36:11.680Z,988.35
2018-04-30T02:38:04.537Z,988.31
2018-04-30T02:39:04.511Z,988.37
2018-04-30T02:40:57.385Z,988.43
2018-04-30T02:41:57.352Z,988.23
2018-04-30T02:43:50.256Z,988.42
2018-04-30T02:44:50.179Z,988.37
2018-04-30T02:46:43.043Z,988.57
2018-04-30T02:47:43.010Z,988.41
2018-04-30T02:49:35.859Z,988.24
2018-04-30T02:50:35.847Z,988.37
2018-04-30T02:52:28.703Z,988.50
2018-04-30T02:53:28.676Z,988.65
2018-04-30T02:55:21.529Z,988.58
2018-04-30T02:56:21.507Z,988.58
2018-04-30T02:58:14.373Z,988.75
2018-04-30T02:59:14.339Z,988.72
2018-04-30T03:01:07.193Z,988.82
2018-04-30T03:02:07.181Z,988.79
2018-04-30T03:04:00.039Z,988.77
2018-04-30T03:05:00.012Z,988.75
2018-04-30T03:06:52.860Z,988.71
2018-04-30T03:07:52.839Z,988.70
2018-04-30T03:09:45.708Z,988.64
2018-04-30T03:10:45.673Z,988.71
2018-04-30T03:12:38.533Z,988.77
2018-04-30T03:13:38.510Z,988.75
2018-04-30T03:15:31.368Z,988.76
2018-04-30T03:16:31.340Z,988.78
2018-04-30T03:18:24.185Z,988.82
2018-04-30T03:19:24.164Z,988.90
2018-04-30T03:21:17.034Z,988.83
2018-04-30T03:22:17.001Z,988.81
2018-04-30T03:24:09.851Z,988.86
2018-04-30T03:25:09.830Z,988.97
2018-04-30T03:27:02.689Z,989.05
2018-04-30T03:28:02.665Z,989.07
2018-04-30T03:29:55.513Z,989.08
2018-04-30T03:30:55.494Z,989.14
2018-04-30T03:32:48.361Z,989.15
2018-04-30T03:33:48.324Z,989.19
2018-04-30T03:35:41.173Z,989.23
2018-04-30T03:36:41.153Z,989.22
2018-04-30T03:38:34.021Z,989.34
2018-04-30T03:39:33.986Z,989.37
2018-04-30T03:41:26.838Z,989.30
2018-04-30T03:42:26.817Z,989.32
2018-04-30T03:44:19.681Z,989.35
2018-04-30T03:45:19.652Z,989.48
2018-04-30T03:47:12.502Z,989.53
2018-04-30T03:48:12.478Z,989.50
2018-04-30T03:50:05.339Z,989.45
2018-04-30T03:51:05.307Z,989.40
2018-04-30T03:52:58.158Z,989.44
2018-04-30T03:53:58.142Z,989.42
2018-04-30T03:55:51.003Z,989.37
2018-04-30T03:56:50.971Z,989.40
2018-04-30T03:58:43.822Z,989.46
2018-04-30T03:59:43.801Z,989.37
2018-04-30T04:01:36.664Z,989.32
2018-04-30T04:02:36.636Z,989.24
2018-04-30T04:04:29.495Z,989.31
2018-04-30T04:05:29.472Z,989.34
2018-04-30T04:07:22.334Z,989.32
2018-04-30T04:08:22.304Z,989.21
2018-04-30T04:10:15.157Z,989.27
2018-04-30T04:11:15.135Z,989.29
2018-04-30T04:13:07.997Z,989.26
2018-04-30T04:14:07.968Z,989.21
2018-04-30T04:16:00.818Z,989.26
2018-04-30T04:17:00.798Z,989.34
2018-04-30T04:18:53.689Z,989.51
2018-04-30T04:19:53.756Z,989.47
2018-04-30T04:21:46.511Z,989.55
2018-04-30T04:22:46.489Z,989.62
2018-04-30T04:24:39.352Z,989.66
2018-04-30T04:25:39.328Z,989.65
2018-04-30T04:27:32.184Z,989.69
2018-04-30T04:28:32.162Z,989.66
2018-04-30T04:30:25.027Z,989.80
2018-04-30T04:31:24.992Z,989.80
2018-04-30T04:33:17.842Z,989.81
2018-04-30T04:34:17.826Z,989.80
2018-04-30T04:36:10.685Z,989.82
2018-04-30T04:37:10.652Z,989.74
2018-04-30T04:39:03.504Z,989.90
2018-04-30T04:40:03.489Z,989.92
2018-04-30T04:41:56.347Z,989.94
2018-04-30T04:42:56.315Z,989.98
2018-04-30T04:44:49.165Z,989.93
2018-04-30T04:45:49.145Z,989.88
2018-04-30T04:47:42.010Z,989.82
2018-04-30T04:48:41.976Z,989.79
2018-04-30T04:50:34.828Z,989.77
2018-04-30T04:51:34.806Z,989.57
2018-04-30T04:53:27.679Z,989.54
2018-04-30T04:54:27.641Z,989.63
2018-04-30T04:56:20.570Z,989.73
2018-04-30T04:57:20.473Z,989.77
2018-04-30T04:59:13.334Z,989.87
2018-04-30T05:00:13.305Z,989.86
2018-04-30T05:02:06.157Z,989.91
2018-04-30T05:03:06.137Z,989.95
2018-04-30T05:04:59.003Z,990.02
2018-04-30T05:05:58.969Z,989.91
2018-04-30T05:07:51.819Z,990.04
2018-04-30T05:08:51.798Z,990.02
2018-04-30T05:10:44.660Z,989.99
2018-04-30T05:11:44.626Z,990.08
2018-04-30T05:13:37.482Z,990.15
2018-04-30T05:14:37.462Z,990.21
2018-04-30T05:16:30.322Z,990.34
2018-04-30T05:17:30.294Z,990.39
2018-04-30T05:19:23.154Z,990.35
2018-04-30T05:20:23.125Z,990.38
2018-04-30T05:22:15.988Z,990.24
2018-04-30T05:23:15.954Z,990.38
2018-04-30T05:25:08.805Z,990.36
2018-04-30T05:26:08.784Z,990.45
2018-04-30T05:28:01.649Z,990.41
2018-04-30T05:29:01.622Z,990.45
2018-04-30T05:30:54.472Z,990.41
2018-04-30T05:31:54.451Z,990.52
2018-04-30T05:33:47.377Z,990.72
2018-04-30T05:34:47.285Z,990.80
2018-04-30T05:36:40.136Z,990.73
2018-04-30T05:37:40.118Z,990.82
2018-04-30T05:39:32.984Z,990.77
2018-04-30T05:40:32.950Z,990.76
2018-04-30T05:42:25.804Z,990.60
2018-04-30T05:43:25.786Z,990.54
2018-04-30T05:45:18.662Z,990.56
2018-04-30T05:46:18.624Z,990.67
2018-04-30T05:48:11.476Z,990.63
2018-04-30T05:49:11.456Z,990.72
2018-04-30T05:51:04.316Z,990.77
2018-04-30T05:52:04.293Z,990.73
2018-04-30T05:53:57.147Z,990.76
2018-04-30T05:54:57.132Z,990.67
2018-04-30T05:56:49.996Z,990.57
2018-04-30T05:57:49.965Z,990.67
2018-04-30T05:59:42.817Z,990.65
2018-04-30T06:00:42.797Z,990.74
2018-04-30T06:02:35.668Z,990.70
2018-04-30T06:03:35.636Z,990.70
2018-04-30T06:05:28.493Z,990.76
2018-04-30T06:06:28.475Z,990.79
2018-04-30T06:08:21.343Z,990.81
2018-04-30T06:09:21.314Z,990.84
2018-04-30T06:11:14.177Z,990.77
2018-04-30T06:12:14.219Z,990.95
2018-04-30T06:14:07.019Z,990.93
2018-04-30T06:15:07.015Z,990.92
2018-04-30T06:16:59.885Z,991.01
2018-04-30T06:17:59.824Z,991.03
2018-04-30T06:19:52.691Z,991.04
2018-04-30T06:20:52.663Z,990.98
2018-04-30T06:22:45.518Z,990.99
2018-04-30T06:23:45.500Z,991.01
2018-04-30T06:25:38.366Z,990.91
2018-04-30T06:26:38.435Z,990.85
2018-04-30T06:28:31.189Z,990.82
2018-04-30T06:29:31.170Z,990.73
2018-04-30T06:31:24.042Z,990.77
2018-04-30T06:32:24.008Z,990.78
2018-04-30T06:34:16.863Z,990.55
2018-04-30T06:35:16.844Z,990.56
2018-04-30T06:37:09.713Z,990.80
2018-04-30T06:38:09.685Z,990.65
2018-04-30T06:40:02.534Z,990.79
2018-04-30T06:41:02.516Z,990.91
2018-04-30T06:42:55.386Z,990.98
2018-04-30T06:43:55.357Z,991.02
2018-04-30T06:45:48.260Z,991.07
2018-04-30T06:46:48.192Z,991.18
2018-04-30T06:48:41.138Z,991.09
2018-04-30T06:49:41.030Z,991.00
2018-04-30T06:51:33.883Z,990.83
2018-04-30T06:52:33.873Z,990.90
2018-04-30T06:54:26.732Z,990.98
2018-04-30T06:55:26.702Z,990.87
2018-04-30T06:57:19.561Z,990.85
2018-04-30T06:58:19.544Z,990.90
2018-04-30T07:00:12.433Z,990.81
2018-04-30T07:01:12.391Z,990.98
2018-04-30T07:03:05.271Z,990.93
2018-04-30T07:04:05.250Z,990.73
2018-04-30T07:05:58.124Z,990.91
2018-04-30T07:06:58.101Z,990.76
2018-04-30T07:08:50.966Z,991.07
2018-04-30T07:09:50.952Z,991.04
2018-04-30T07:11:43.831Z,991.13
2018-04-30T07:12:43.807Z,991.14
2018-04-30T07:14:36.685Z,990.92
2018-04-30T07:15:36.672Z,990.85
2018-04-30T07:17:29.550Z,990.95
2018-04-30T07:18:29.525Z,991.04
2018-04-30T07:20:22.403Z,991.18
2018-04-30T07:21:22.389Z,991.25
2018-04-30T07:23:15.275Z,990.98
2018-04-30T07:24:15.250Z,990.97
2018-04-30T07:26:08.122Z,990.88
2018-04-30T07:27:08.107Z,991.02
2018-04-30T07:29:01.057Z,990.99
2018-04-30T07:30:00.960Z,990.96
2018-04-30T07:31:53.832Z,991.08
2018-04-30T07:32:53.821Z,991.08
2018-04-30T07:34:46.702Z,991.09
2018-04-30T07:35:46.678Z,991.08
2018-04-30T07:37:39.547Z,991.19
2018-04-30T07:38:39.539Z,990.97
2018-04-30T07:40:32.417Z,991.14
2018-04-30T07:41:32.394Z,991.06
2018-04-30T07:43:25.265Z,991.20
2018-04-30T07:44:25.254Z,991.07
2018-04-30T07:46:18.136Z,991.06
2018-04-30T07:47:18.113Z,991.24
2018-04-30T07:49:10.997Z,991.29
2018-04-30T07:50:10.974Z,991.26
2018-04-30T07:52:03.856Z,991.11
2018-04-30T07:53:03.831Z,990.91
2018-04-30T07:54:56.701Z,991.05
2018-04-30T07:55:56.692Z,990.81
2018-04-30T07:57:49.582Z,991.07
2018-04-30T07:58:49.552Z,990.96
2018-04-30T08:00:42.416Z,991.16
2018-04-30T08:01:42.408Z,991.04
2018-04-30T08:03:35.285Z,991.10
2018-04-30T08:04:35.269Z,991.14
2018-04-30T08:06:28.142Z,990.88
2018-04-30T08:07:28.123Z,990.79
2018-04-30T08:09:21.003Z,990.87
2018-04-30T08:10:20.979Z,991.11
2018-04-30T08:12:13.848Z,991.18
2018-04-30T08:13:13.847Z,990.79
2018-04-30T08:15:06.728Z,990.75
2018-04-30T08:16:06.703Z,990.72
2018-04-30T08:17:59.574Z,991.06
2018-04-30T08:18:59.560Z,990.56
2018-04-30T08:20:52.437Z,991.18
2018-04-30T08:21:52.420Z,990.52
2018-04-30T08:23:45.288Z,990.85
2018-04-30T08:24:45.277Z,991.01
2018-04-30T08:26:38.164Z,991.12
2018-04-30T08:27:38.138Z,991.12
2018-04-30T08:29:31.010Z,991.05
2018-04-30T08:30:31.006Z,990.98
2018-04-30T08:32:23.883Z,991.25
2018-04-30T08:33:23.864Z,991.20
2018-04-30T08:35:16.730Z,991.24
2018-04-30T08:36:16.728Z,991.35
2018-04-30T08:38:09.605Z,991.33
2018-04-30T08:39:09.588Z,991.26
2018-04-30T08:41:02.462Z,991.47
2018-04-30T08:42:02.452Z,991.47
2018-04-30T08:43:55.337Z,992.49
2018-04-30T08:44:55.316Z,992.68
2018-04-30T08:46:48.190Z,994.56
2018-04-30T08:47:48.179Z,995.09
2018-04-30T08:49:41.065Z,994.49
2018-04-30T08:50:41.043Z,995.62
2018-04-30T08:52:33.920Z,991.77
2018-04-30T08:53:33.909Z,994.12
2018-04-30T08:55:26.792Z,995.93
2018-04-30T08:56:26.776Z,996.29
2018-04-30T08:58:19.651Z,996.71
2018-04-30T08:59:19.642Z,996.40
2018-04-30T09:01:12.529Z,997.61
2018-04-30T09:02:12.508Z,997.78
2018-04-30T09:04:05.385Z,997.02
2018-04-30T09:05:05.379Z,997.01
2018-04-30T09:06:58.265Z,997.00
2018-04-30T09:07:58.244Z,991.75
2018-04-30T09:09:51.185Z,991.01
2018-04-30T09:10:51.105Z,991.36
2018-04-30T09:12:43.992Z,998.15
2018-04-30T09:13:43.972Z,998.05
2018-04-30T09:15:36.843Z,997.52
2018-04-30T09:16:36.834Z,997.46
2018-04-30T09:18:29.715Z,998.38
2018-04-30T09:19:29.692Z,990.93
2018-04-30T09:21:22.565Z,998.43
2018-04-30T09:22:22.554Z,991.53
2018-04-30T09:24:15.437Z,992.38
2018-04-30T09:25:15.413Z,995.03
2018-04-30T09:27:08.285Z,998.10
2018-04-30T09:28:08.283Z,991.18
2018-04-30T09:30:01.159Z,995.64
2018-04-30T09:31:01.132Z,992.39
2018-04-30T09:32:54.002Z,991.04
2018-04-30T09:33:53.993Z,991.18
2018-04-30T09:35:46.878Z,991.35
2018-04-30T09:36:46.849Z,998.57
2018-04-30T09:38:39.728Z,998.25
2018-04-30T09:39:39.712Z,998.32
2018-04-30T09:41:32.594Z,998.25
2018-04-30T09:42:32.573Z,998.39
2018-04-30T09:44:25.442Z,991.23
2018-04-30T09:45:25.430Z,991.50
2018-04-30T09:47:18.310Z,991.43
2018-04-30T09:48:18.291Z,991.19
2018-04-30T09:50:11.162Z,991.20
2018-04-30T09:51:11.151Z,991.02
2018-04-30T09:53:04.035Z,996.24
2018-04-30T09:54:04.007Z,991.21
2018-04-30T09:55:56.878Z,994.89
2018-04-30T09:56:56.866Z,994.31
2018-04-30T09:58:49.749Z,990.97
2018-04-30T09:59:49.727Z,991.94
2018-04-30T10:01:42.596Z,993.02
2018-04-30T10:02:42.655Z,993.92
2018-04-30T10:04:35.464Z,994.00
2018-04-30T10:05:35.443Z,993.53
2018-04-30T10:07:28.319Z,993.59
2018-04-30T10:08:28.311Z,993.09
2018-04-30T10:10:21.196Z,993.09
2018-04-30T10:11:21.172Z,993.11
2018-04-30T10:13:14.053Z,992.47
2018-04-30T10:14:14.042Z,992.46
2018-04-30T10:16:06.928Z,990.92
2018-04-30T10:17:06.905Z,991.05
2018-04-30T10:18:59.779Z,990.87
2018-04-30T10:19:59.768Z,990.78
2018-04-30T10:21:52.651Z,992.24
2018-04-30T10:22:52.628Z,991.00
2018-04-30T10:24:45.497Z,991.13
2018-04-30T10:25:45.486Z,991.00
2018-04-30T10:27:38.372Z,991.10
2018-04-30T10:28:38.409Z,991.96
2018-04-30T10:30:31.219Z,991.30
2018-04-30T10:31:31.210Z,991.01
2018-04-30T10:33:24.089Z,991.61
2018-04-30T10:34:24.070Z,992.08
2018-04-30T10:36:16.944Z,991.81
2018-04-30T10:37:16.930Z,991.10
2018-04-30T10:39:09.809Z,992.12
2018-04-30T10:40:09.788Z,992.06
2018-04-30T10:42:02.665Z,991.35
2018-04-30T10:43:02.652Z,991.14
2018-04-30T10:44:55.535Z,990.97
2018-04-30T10:45:55.611Z,990.99
2018-04-30T10:47:48.382Z,991.03
2018-04-30T10:48:48.375Z,990.80
2018-04-30T10:50:41.257Z,991.11
2018-04-30T10:51:41.247Z,991.15
2018-04-30T10:53:34.098Z,991.19
2018-04-30T10:54:34.087Z,991.03
2018-04-30T10:56:26.959Z,990.98
2018-04-30T10:57:26.938Z,991.01
2018-04-30T10:59:19.877Z,992.01
2018-04-30T11:00:19.790Z,991.22
2018-04-30T11:02:12.665Z,990.91
2018-04-30T11:03:12.640Z,991.22
2018-04-30T11:05:05.507Z,992.39
2018-04-30T11:06:05.494Z,991.18
2018-04-30T11:07:58.443Z,991.28
2018-04-30T11:08:58.355Z,991.34
2018-04-30T11:10:51.221Z,991.19
2018-04-30T11:11:51.208Z,991.07
2018-04-30T11:13:44.092Z,991.47
2018-04-30T11:14:44.067Z,992.14
2018-04-30T11:16:36.939Z,992.35
2018-04-30T11:17:36.943Z,991.25
2018-04-30T11:19:29.806Z,991.21
2018-04-30T11:20:29.789Z,991.02
2018-04-30T11:22:22.661Z,991.00
2018-04-30T11:23:22.661Z,990.98
2018-04-30T11:25:15.532Z,991.40
2018-04-30T11:26:15.508Z,991.55
2018-04-30T11:28:08.379Z,991.52
2018-04-30T11:29:08.366Z,991.61
2018-04-30T11:31:01.248Z,992.91
2018-04-30T11:32:01.230Z,993.56
2018-04-30T11:33:54.108Z,993.43
2018-04-30T11:34:54.088Z,993.01
2018-04-30T11:36:46.978Z,991.49
2018-04-30T11:37:46.955Z,991.15
2018-04-30T11:39:39.830Z,990.86
2018-04-30T11:40:39.823Z,992.74
2018-04-30T11:42:32.708Z,991.00
2018-04-30T11:43:32.682Z,990.97
2018-04-30T11:45:25.557Z,992.76
2018-04-30T11:46:25.545Z,992.67
2018-04-30T11:48:18.421Z,990.83
2018-04-30T11:49:18.404Z,990.89
2018-04-30T11:51:11.278Z,991.11
2018-04-30T11:52:11.268Z,991.17
2018-04-30T11:54:04.151Z,991.10
2018-04-30T11:55:04.131Z,991.14
2018-04-30T11:56:57.001Z,991.43
2018-04-30T11:57:56.988Z,991.96
2018-04-30T11:59:49.885Z,991.98
2018-04-30T12:00:49.844Z,991.99
2018-04-30T12:02:42.711Z,992.07
2018-04-30T12:03:42.700Z,992.11
2018-04-30T12:05:35.576Z,992.08
2018-04-30T12:06:35.558Z,992.11
2018-04-30T12:08:28.441Z,991.80
2018-04-30T12:09:28.418Z,992.18
2018-04-30T12:11:21.301Z,991.93
2018-04-30T12:12:21.280Z,991.99
2018-04-30T12:14:14.154Z,992.01
2018-04-30T12:15:14.143Z,992.13
2018-04-30T12:17:07.028Z,992.11
2018-04-30T12:18:07.005Z,992.14
2018-04-30T12:19:59.885Z,992.00
2018-04-30T12:20:59.874Z,991.97
2018-04-30T12:22:52.755Z,991.92
2018-04-30T12:23:52.736Z,991.45
2018-04-30T12:25:45.611Z,991.74
2018-04-30T12:26:45.603Z,991.90
2018-04-30T12:28:38.486Z,991.90
2018-04-30T12:29:38.525Z,991.89
2018-04-30T12:31:31.338Z,992.00
2018-04-30T12:32:31.327Z,991.49
2018-04-30T12:34:24.214Z,991.86
2018-04-30T12:35:24.189Z,991.84
2018-04-30T12:37:17.059Z,991.76
2018-04-30T12:38:17.051Z,991.81
2018-04-30T12:40:09.927Z,991.93
2018-04-30T12:41:09.909Z,991.91
2018-04-30T12:43:02.778Z,991.56
2018-04-30T12:44:02.767Z,991.92
2018-04-30T12:45:55.644Z,991.78
2018-04-30T12:46:55.630Z,991.64
2018-04-30T12:48:48.499Z,991.80
2018-04-30T12:49:48.509Z,991.40
2018-04-30T12:51:41.366Z,991.19
2018-04-30T12:52:41.349Z,991.25
2018-04-30T12:54:34.226Z,991.26
2018-04-30T12:55:34.214Z,991.81
2018-04-30T12:57:27.165Z,991.33
2018-04-30T12:58:27.074Z,991.39
2018-04-30T13:00:19.954Z,991.26
2018-04-30T13:01:19.933Z,991.32
2018-04-30T13:03:12.804Z,991.04
2018-04-30T13:04:12.786Z,991.19
2018-04-30T13:06:05.664Z,991.21
2018-04-30T13:07:05.639Z,991.26
2018-04-30T13:08:58.512Z,991.20
2018-04-30T13:09:58.504Z,991.55
2018-04-30T13:11:51.377Z,991.61
2018-04-30T13:12:51.353Z,991.42
2018-04-30T13:14:44.217Z,991.36
2018-04-30T13:15:44.235Z,991.41
2018-04-30T13:17:37.080Z,991.57
2018-04-30T13:18:37.060Z,991.47
2018-04-30T13:20:29.961Z,991.54
2018-04-30T13:21:29.916Z,991.53
2018-04-30T13:23:22.787Z,991.29
2018-04-30T13:24:22.777Z,991.70
2018-04-30T13:26:15.664Z,991.62
2018-04-30T13:27:15.626Z,991.35
2018-04-30T13:29:08.497Z,991.48
2018-04-30T13:30:08.485Z,991.67
2018-04-30T13:32:01.367Z,991.59
2018-04-30T13:33:01.342Z,991.55
2018-04-30T13:34:54.207Z,991.50
2018-04-30T13:35:54.194Z,991.24
2018-04-30T13:37:47.071Z,991.43
2018-04-30T13:38:47.050Z,991.58
2018-04-30T13:40:39.917Z,991.55
2018-04-30T13:41:39.914Z,991.25
2018-04-30T13:43:32.811Z,991.22
2018-04-30T13:44:32.763Z,991.45
2018-04-30T13:46:25.630Z,991.47
2018-04-30T13:47:25.620Z,991.30
2018-04-30T13:49:18.500Z,991.41
2018-04-30T13:50:18.474Z,991.29
2018-04-30T13:52:11.344Z,991.50
2018-04-30T13:53:11.334Z,990.89
2018-04-30T13:55:04.206Z,991.18
2018-04-30T13:56:04.188Z,991.06
2018-04-30T13:57:57.053Z,991.37
2018-04-30T13:58:57.042Z,991.47
2018-04-30T14:00:49.922Z,991.54
2018-04-30T14:01:49.942Z,991.30
2018-04-30T14:03:42.768Z,991.47
2018-04-30T14:04:42.755Z,991.49
2018-04-30T14:06:35.634Z,991.42
2018-04-30T14:07:35.609Z,991.49
2018-04-30T14:09:28.479Z,991.54
2018-04-30T14:10:28.469Z,991.49
2018-04-30T14:12:21.339Z,991.51
2018-04-30T14:13:21.320Z,991.58
2018-04-30T14:15:14.188Z,991.54
2018-04-30T14:16:14.177Z,991.56
2018-04-30T14:18:07.063Z,991.54
2018-04-30T14:19:07.040Z,991.61
2018-04-30T14:20:59.909Z,991.44
2018-04-30T14:21:59.897Z,991.59
2018-04-30T14:23:52.778Z,991.69
2018-04-30T14:24:52.753Z,991.49
2018-04-30T14:26:45.621Z,991.55
2018-04-30T14:27:45.642Z,991.48
2018-04-30T14:29:38.484Z,991.55
2018-04-30T14:30:38.466Z,991.55
2018-04-30T14:32:31.330Z,991.70
2018-04-30T14:33:31.315Z,991.58
2018-04-30T14:35:24.192Z,991.66
2018-04-30T14:36:24.169Z,991.52
2018-04-30T14:38:17.177Z,991.61
2018-04-30T14:39:17.018Z,991.60
2018-04-30T14:41:09.901Z,991.53
2018-04-30T14:42:09.875Z,991.58
2018-04-30T14:44:02.741Z,991.48
2018-04-30T14:45:02.727Z,991.38
2018-04-30T14:46:55.603Z,991.34
2018-04-30T14:47:55.581Z,991.32
2018-04-30T14:49:48.443Z,991.33
2018-04-30T14:50:48.433Z,991.30
2018-04-30T14:52:41.305Z,991.32
2018-04-30T14:53:41.280Z,991.30
2018-04-30T14:55:34.142Z,991.26
2018-04-30T14:56:34.137Z,991.20
2018-04-30T14:58:27.005Z,991.18
2018-04-30T14:59:26.982Z,991.16
2018-04-30T15:01:19.843Z,991.14
2018-04-30T15:02:19.827Z,991.10
2018-04-30T15:04:12.700Z,991.14
2018-04-30T15:05:12.680Z,991.17
2018-04-30T15:07:05.548Z,991.04
2018-04-30T15:08:05.527Z,991.09
2018-04-30T15:09:58.405Z,991.08
2018-04-30T15:10:58.380Z,990.98
2018-04-30T15:12:51.244Z,990.97
2018-04-30T15:13:51.228Z,991.09
2018-04-30T15:15:44.106Z,990.96
2018-04-30T15:16:44.079Z,990.92
2018-04-30T15:18:36.943Z,990.92
2018-04-30T15:19:36.938Z,990.99
2018-04-30T15:21:29.796Z,990.99
2018-04-30T15:22:29.783Z,990.99
2018-04-30T15:24:22.634Z,991.14
2018-04-30T15:25:22.619Z,991.20
2018-04-30T15:27:15.496Z,991.12
2018-04-30T15:28:15.469Z,991.11
2018-04-30T15:30:08.332Z,991.09
2018-04-30T15:31:08.315Z,991.04
2018-04-30T15:33:01.202Z,991.15
2018-04-30T15:34:01.160Z,991.20
2018-04-30T15:35:54.047Z,991.25
2018-04-30T15:36:54.004Z,991.19
2018-04-30T15:38:46.885Z,991.39
2018-04-30T15:39:46.857Z,991.50
2018-04-30T15:41:39.717Z,991.62
2018-04-30T15:42:39.699Z,991.67
2018-04-30T15:44:32.573Z,991.59
2018-04-30T15:45:32.543Z,991.82
2018-04-30T15:47:25.406Z,992.02
2018-04-30T15:48:25.389Z,992.03
2018-04-30T15:50:18.256Z,991.96
2018-04-30T15:51:18.242Z,992.02
2018-04-30T15:53:11.093Z,991.87
2018-04-30T15:54:11.078Z,991.87
2018-04-30T15:56:03.955Z,991.87
2018-04-30T15:57:03.920Z,991.89
2018-04-30T15:58:56.783Z,991.91
2018-04-30T15:59:56.761Z,991.80
2018-04-30T16:01:49.635Z,991.75
2018-04-30T16:02:49.607Z,991.90
2018-04-30T16:04:42.464Z,991.88
2018-04-30T16:05:42.448Z,992.02
2018-04-30T16:07:35.322Z,992.03
2018-04-30T16:08:35.295Z,992.00
2018-04-30T16:10:28.157Z,991.91
2018-04-30T16:11:28.132Z,992.03
2018-04-30T16:13:20.994Z,992.03
2018-04-30T16:14:20.991Z,992.08
2018-04-30T16:16:13.829Z,991.90
2018-04-30T16:17:13.810Z,991.98
2018-04-30T16:19:06.688Z,992.05
2018-04-30T16:20:06.661Z,992.01
2018-04-30T16:21:59.519Z,992.07
2018-04-30T16:22:59.500Z,992.08
2018-04-30T16:24:52.368Z,992.10
2018-04-30T16:25:52.338Z,992.08
2018-04-30T16:27:45.193Z,992.15
2018-04-30T16:28:45.176Z,992.17
2018-04-30T16:30:38.119Z,992.26
2018-04-30T16:31:38.016Z,992.16
2018-04-30T16:33:30.869Z,992.25
2018-04-30T16:34:30.857Z,992.20
2018-04-30T16:36:23.721Z,992.20
2018-04-30T16:37:23.689Z,992.16
2018-04-30T16:39:16.547Z,991.89
2018-04-30T16:40:16.537Z,992.15
2018-04-30T16:42:09.400Z,992.22
2018-04-30T16:43:09.368Z,992.29
2018-04-30T16:45:02.230Z,992.29
2018-04-30T16:46:02.211Z,992.25
2018-04-30T16:47:55.079Z,992.13
2018-04-30T16:48:55.051Z,992.19
2018-04-30T16:50:47.905Z,992.23
2018-04-30T16:51:47.890Z,992.15
2018-04-30T16:53:40.758Z,992.19
2018-04-30T16:54:40.731Z,992.18
2018-04-30T16:56:33.582Z,992.17
2018-04-30T16:57:33.564Z,992.17
2018-04-30T16:59:26.431Z,992.17
2018-04-30T17:00:26.399Z,992.12
2018-04-30T17:02:19.254Z,992.16
2018-04-30T17:03:19.235Z,992.21
2018-04-30T17:05:12.100Z,992.16
2018-04-30T17:06:12.075Z,992.20
2018-04-30T17:08:04.930Z,992.20
2018-04-30T17:09:04.912Z,992.29
2018-04-30T17:10:57.785Z,992.16
2018-04-30T17:11:57.760Z,992.16
2018-04-30T17:13:50.614Z,992.03
2018-04-30T17:14:50.593Z,992.06
2018-04-30T17:16:43.466Z,991.95
2018-04-30T17:17:43.516Z,992.15
2018-04-30T17:19:36.285Z,992.11
2018-04-30T17:20:36.266Z,992.17
2018-04-30T17:22:29.706Z,992.22
2018-04-30T17:23:29.108Z,992.19
2018-04-30T17:25:21.968Z,992.23
2018-04-30T17:26:21.942Z,992.25
2018-04-30T17:28:14.810Z,992.31
2018-04-30T17:29:14.781Z,992.30
2018-04-30T17:31:07.646Z,992.31
2018-04-30T17:32:07.627Z,992.28
2018-04-30T17:34:00.496Z,992.39
2018-04-30T17:35:00.465Z,992.38
2018-04-30T17:36:53.321Z,992.48
2018-04-30T17:37:53.297Z,992.47
2018-04-30T17:39:46.162Z,992.58
2018-04-30T17:40:46.134Z,992.65
2018-04-30T17:42:38.989Z,992.73
2018-04-30T17:43:38.968Z,992.74
2018-04-30T17:45:31.838Z,992.68
2018-04-30T17:46:31.807Z,992.71
2018-04-30T17:48:24.663Z,992.70
2018-04-30T17:49:24.644Z,992.78
2018-04-30T17:51:17.516Z,992.76
2018-04-30T17:52:17.510Z,992.80
2018-04-30T17:54:10.379Z,992.88
2018-04-30T17:55:10.321Z,992.82
2018-04-30T17:57:03.190Z,992.88
2018-04-30T17:58:03.161Z,992.94